sensor_id;sensor_type;location;lat;lon;timestamp;P1;durP1;ratioP1;P2;durP2;ratioP2
44486;SDS011;30191;50.908;6.962;2024-01-15T00:01:46;27.45;;;15.23;;
44486;SDS011;30191;50.908;6.962;2024-01-15T00:04:11;32.58;;;15.88;;
44486;SDS011;30191;50.908;6.962;2024-01-15T00:06:37;31.17;;;15.07;;
44486;SDS011;30191;50.908;6.962;2024-01-15T00:09:03;33.20;;;15.55;;
44486;SDS011;30191;50.908;6.962;2024-01-15T00:11:28;31.80;;;15.95;;
44486;SDS011;30191;50.908;6.962;2024-01-15T00:13:54;30.77;;;15.48;;
44486;SDS011;30191;50.908;6.962;2024-01-15T00:16:19;30.77;;;15.85;;
44486;SDS011;30191;50.908;6.962;2024-01-15T00:18:45;29.60;;;16.38;;
44486;SDS011;30191;50.908;6.962;2024-01-15T00:21:11;29.17;;;15.93;;
44486;SDS011;30191;50.908;6.962;2024-01-15T00:23:36;31.50;;;15.77;;
44486;SDS011;30191;50.908;6.962;2024-01-15T00:26:02;30.00;;;15.23;;
44486;SDS011;30191;50.908;6.962;2024-01-15T00:28:27;34.45;;;16.30;;
44486;SDS011;30191;50.908;6.962;2024-01-15T00:30:53;30.48;;;16.10;;
44486;SDS011;30191;50.908;6.962;2024-01-15T00:33:19;32.50;;;17.75;;
44486;SDS011;30191;50.908;6.962;2024-01-15T00:35:44;37.17;;;18.02;;
44486;SDS011;30191;50.908;6.962;2024-01-15T00:38:10;31.70;;;16.13;;
44486;SDS011;30191;50.908;6.962;2024-01-15T00:40:35;35.33;;;17.23;;
44486;SDS011;30191;50.908;6.962;2024-01-15T00:43:01;30.02;;;16.30;;
44486;SDS011;30191;50.908;6.962;2024-01-15T00:45:27;32.25;;;16.70;;
44486;SDS011;30191;50.908;6.962;2024-01-15T00:47:53;32.05;;;16.42;;
44486;SDS011;30191;50.908;6.962;2024-01-15T00:50:21;37.08;;;16.65;;
44486;SDS011;30191;50.908;6.962;2024-01-15T00:52:47;33.65;;;17.13;;
44486;SDS011;30191;50.908;6.962;2024-01-15T00:55:12;32.95;;;17.10;;
44486;SDS011;30191;50.908;6.962;2024-01-15T00:57:38;30.80;;;16.00;;
44486;SDS011;30191;50.908;6.962;2024-01-15T01:00:05;32.97;;;17.02;;
44486;SDS011;30191;50.908;6.962;2024-01-15T01:02:31;32.30;;;16.52;;
44486;SDS011;30191;50.908;6.962;2024-01-15T01:04:57;36.92;;;17.67;;
44486;SDS011;30191;50.908;6.962;2024-01-15T01:07:22;32.95;;;16.98;;
44486;SDS011;30191;50.908;6.962;2024-01-15T01:09:48;33.33;;;16.67;;
44486;SDS011;30191;50.908;6.962;2024-01-15T01:12:14;35.83;;;17.73;;
44486;SDS011;30191;50.908;6.962;2024-01-15T01:14:40;37.40;;;17.02;;
44486;SDS011;30191;50.908;6.962;2024-01-15T01:17:05;31.13;;;16.33;;
44486;SDS011;30191;50.908;6.962;2024-01-15T01:19:31;34.65;;;18.25;;
44486;SDS011;30191;50.908;6.962;2024-01-15T01:21:56;35.35;;;17.73;;
44486;SDS011;30191;50.908;6.962;2024-01-15T01:24:22;35.80;;;17.17;;
44486;SDS011;30191;50.908;6.962;2024-01-15T01:26:48;38.47;;;18.02;;
44486;SDS011;30191;50.908;6.962;2024-01-15T01:29:14;36.63;;;17.67;;
44486;SDS011;30191;50.908;6.962;2024-01-15T01:31:43;37.00;;;18.40;;
44486;SDS011;30191;50.908;6.962;2024-01-15T01:34:09;35.42;;;17.25;;
44486;SDS011;30191;50.908;6.962;2024-01-15T01:36:35;35.90;;;17.85;;
44486;SDS011;30191;50.908;6.962;2024-01-15T01:39:01;32.85;;;16.92;;
44486;SDS011;30191;50.908;6.962;2024-01-15T01:41:27;35.58;;;17.70;;
44486;SDS011;30191;50.908;6.962;2024-01-15T01:43:52;32.03;;;17.48;;
44486;SDS011;30191;50.908;6.962;2024-01-15T01:46:18;32.47;;;17.00;;
44486;SDS011;30191;50.908;6.962;2024-01-15T01:48:44;35.70;;;17.38;;
44486;SDS011;30191;50.908;6.962;2024-01-15T01:51:09;32.80;;;16.92;;
44486;SDS011;30191;50.908;6.962;2024-01-15T01:53:36;37.65;;;18.13;;
44486;SDS011;30191;50.908;6.962;2024-01-15T01:56:03;33.60;;;16.52;;
44486;SDS011;30191;50.908;6.962;2024-01-15T01:58:29;37.25;;;18.23;;
44486;SDS011;30191;50.908;6.962;2024-01-15T02:00:57;33.47;;;16.88;;
44486;SDS011;30191;50.908;6.962;2024-01-15T02:03:24;35.15;;;17.95;;
44486;SDS011;30191;50.908;6.962;2024-01-15T02:05:50;37.70;;;18.13;;
44486;SDS011;30191;50.908;6.962;2024-01-15T02:08:17;31.67;;;16.55;;
44486;SDS011;30191;50.908;6.962;2024-01-15T02:10:43;33.70;;;17.17;;
44486;SDS011;30191;50.908;6.962;2024-01-15T02:13:09;34.03;;;16.80;;
44486;SDS011;30191;50.908;6.962;2024-01-15T02:15:34;35.38;;;17.15;;
44486;SDS011;30191;50.908;6.962;2024-01-15T02:18:00;32.95;;;17.08;;
44486;SDS011;30191;50.908;6.962;2024-01-15T02:20:27;31.38;;;16.65;;
44486;SDS011;30191;50.908;6.962;2024-01-15T02:22:54;35.67;;;16.98;;
44486;SDS011;30191;50.908;6.962;2024-01-15T02:25:26;34.60;;;17.48;;
44486;SDS011;30191;50.908;6.962;2024-01-15T02:27:52;30.95;;;16.48;;
44486;SDS011;30191;50.908;6.962;2024-01-15T02:30:18;32.83;;;16.48;;
44486;SDS011;30191;50.908;6.962;2024-01-15T02:32:43;33.75;;;16.80;;
44486;SDS011;30191;50.908;6.962;2024-01-15T02:35:09;33.97;;;17.45;;
44486;SDS011;30191;50.908;6.962;2024-01-15T02:37:35;34.80;;;18.48;;
44486;SDS011;30191;50.908;6.962;2024-01-15T02:40:01;31.75;;;17.52;;
44486;SDS011;30191;50.908;6.962;2024-01-15T02:42:26;34.17;;;17.92;;
44486;SDS011;30191;50.908;6.962;2024-01-15T02:44:52;38.33;;;18.38;;
44486;SDS011;30191;50.908;6.962;2024-01-15T02:47:18;31.48;;;17.10;;
44486;SDS011;30191;50.908;6.962;2024-01-15T02:49:44;32.72;;;17.02;;
44486;SDS011;30191;50.908;6.962;2024-01-15T02:52:09;30.85;;;16.23;;
44486;SDS011;30191;50.908;6.962;2024-01-15T02:54:35;31.05;;;17.35;;
44486;SDS011;30191;50.908;6.962;2024-01-15T02:57:00;33.00;;;16.63;;
44486;SDS011;30191;50.908;6.962;2024-01-15T02:59:26;35.42;;;17.60;;
44486;SDS011;30191;50.908;6.962;2024-01-15T03:01:51;30.60;;;16.60;;
44486;SDS011;30191;50.908;6.962;2024-01-15T03:04:17;31.75;;;16.33;;
44486;SDS011;30191;50.908;6.962;2024-01-15T03:06:43;30.83;;;16.35;;
44486;SDS011;30191;50.908;6.962;2024-01-15T03:09:08;32.63;;;16.92;;
44486;SDS011;30191;50.908;6.962;2024-01-15T03:11:37;30.27;;;17.13;;
44486;SDS011;30191;50.908;6.962;2024-01-15T03:14:04;30.42;;;16.63;;
44486;SDS011;30191;50.908;6.962;2024-01-15T03:16:29;33.50;;;16.70;;
44486;SDS011;30191;50.908;6.962;2024-01-15T03:18:55;30.40;;;15.32;;
44486;SDS011;30191;50.908;6.962;2024-01-15T03:21:21;29.35;;;16.40;;
44486;SDS011;30191;50.908;6.962;2024-01-15T03:23:46;26.58;;;15.50;;
44486;SDS011;30191;50.908;6.962;2024-01-15T03:26:12;29.80;;;16.38;;
44486;SDS011;30191;50.908;6.962;2024-01-15T03:28:37;28.08;;;16.25;;
44486;SDS011;30191;50.908;6.962;2024-01-15T03:31:03;33.88;;;16.85;;
44486;SDS011;30191;50.908;6.962;2024-01-15T03:33:29;30.65;;;15.68;;
44486;SDS011;30191;50.908;6.962;2024-01-15T03:35:55;29.70;;;16.50;;
44486;SDS011;30191;50.908;6.962;2024-01-15T03:38:20;32.33;;;17.15;;
44486;SDS011;30191;50.908;6.962;2024-01-15T03:40:47;31.02;;;16.92;;
44486;SDS011;30191;50.908;6.962;2024-01-15T03:43:13;30.02;;;16.65;;
44486;SDS011;30191;50.908;6.962;2024-01-15T03:45:38;27.85;;;16.40;;
44486;SDS011;30191;50.908;6.962;2024-01-15T03:48:04;29.00;;;15.70;;
44486;SDS011;30191;50.908;6.962;2024-01-15T03:50:30;31.65;;;16.60;;
44486;SDS011;30191;50.908;6.962;2024-01-15T03:52:55;30.58;;;16.73;;
44486;SDS011;30191;50.908;6.962;2024-01-15T03:55:21;26.83;;;16.15;;
44486;SDS011;30191;50.908;6.962;2024-01-15T03:57:47;29.40;;;16.85;;
44486;SDS011;30191;50.908;6.962;2024-01-15T04:00:13;28.88;;;16.77;;
44486;SDS011;30191;50.908;6.962;2024-01-15T04:02:40;30.55;;;17.40;;
44486;SDS011;30191;50.908;6.962;2024-01-15T04:05:05;30.25;;;16.42;;
44486;SDS011;30191;50.908;6.962;2024-01-15T04:07:31;30.90;;;17.27;;
44486;SDS011;30191;50.908;6.962;2024-01-15T04:09:56;27.15;;;16.58;;
44486;SDS011;30191;50.908;6.962;2024-01-15T04:12:22;28.65;;;17.23;;
44486;SDS011;30191;50.908;6.962;2024-01-15T04:14:48;28.23;;;16.25;;
44486;SDS011;30191;50.908;6.962;2024-01-15T04:17:13;27.70;;;16.52;;
44486;SDS011;30191;50.908;6.962;2024-01-15T04:19:39;27.38;;;16.58;;
44486;SDS011;30191;50.908;6.962;2024-01-15T04:22:04;29.00;;;16.73;;
44486;SDS011;30191;50.908;6.962;2024-01-15T04:24:33;31.63;;;16.60;;
44486;SDS011;30191;50.908;6.962;2024-01-15T04:26:59;29.65;;;16.88;;
44486;SDS011;30191;50.908;6.962;2024-01-15T04:29:24;30.15;;;16.75;;
44486;SDS011;30191;50.908;6.962;2024-01-15T04:31:50;28.50;;;16.38;;
44486;SDS011;30191;50.908;6.962;2024-01-15T04:34:18;28.00;;;16.35;;
44486;SDS011;30191;50.908;6.962;2024-01-15T04:36:43;29.85;;;15.98;;
44486;SDS011;30191;50.908;6.962;2024-01-15T04:39:09;28.15;;;15.45;;
44486;SDS011;30191;50.908;6.962;2024-01-15T04:41:36;25.73;;;15.02;;
44486;SDS011;30191;50.908;6.962;2024-01-15T04:44:02;27.40;;;15.27;;
44486;SDS011;30191;50.908;6.962;2024-01-15T04:46:27;28.05;;;15.60;;
44486;SDS011;30191;50.908;6.962;2024-01-15T04:48:53;29.88;;;15.13;;
44486;SDS011;30191;50.908;6.962;2024-01-15T04:51:19;25.90;;;14.40;;
44486;SDS011;30191;50.908;6.962;2024-01-15T04:53:44;25.25;;;14.45;;
44486;SDS011;30191;50.908;6.962;2024-01-15T04:56:10;21.60;;;13.55;;
44486;SDS011;30191;50.908;6.962;2024-01-15T04:58:36;26.27;;;14.23;;
44486;SDS011;30191;50.908;6.962;2024-01-15T05:01:01;28.83;;;14.65;;
44486;SDS011;30191;50.908;6.962;2024-01-15T05:03:27;22.42;;;13.85;;
44486;SDS011;30191;50.908;6.962;2024-01-15T05:05:52;25.70;;;13.80;;
44486;SDS011;30191;50.908;6.962;2024-01-15T05:08:18;24.35;;;14.80;;
44486;SDS011;30191;50.908;6.962;2024-01-15T05:10:44;21.33;;;13.35;;
44486;SDS011;30191;50.908;6.962;2024-01-15T05:13:10;21.80;;;13.50;;
44486;SDS011;30191;50.908;6.962;2024-01-15T05:15:35;21.00;;;12.82;;
44486;SDS011;30191;50.908;6.962;2024-01-15T05:18:01;23.08;;;13.80;;
44486;SDS011;30191;50.908;6.962;2024-01-15T05:20:27;21.77;;;12.48;;
44486;SDS011;30191;50.908;6.962;2024-01-15T05:22:52;25.17;;;13.50;;
44486;SDS011;30191;50.908;6.962;2024-01-15T05:25:18;22.23;;;13.55;;
44486;SDS011;30191;50.908;6.962;2024-01-15T05:27:44;21.40;;;12.45;;
44486;SDS011;30191;50.908;6.962;2024-01-15T05:30:09;19.55;;;12.23;;
44486;SDS011;30191;50.908;6.962;2024-01-15T05:32:35;23.45;;;12.52;;
44486;SDS011;30191;50.908;6.962;2024-01-15T05:35:01;24.98;;;12.98;;
44486;SDS011;30191;50.908;6.962;2024-01-15T05:37:27;19.80;;;11.32;;
44486;SDS011;30191;50.908;6.962;2024-01-15T05:39:52;19.25;;;11.80;;
44486;SDS011;30191;50.908;6.962;2024-01-15T05:42:18;21.20;;;12.52;;
44486;SDS011;30191;50.908;6.962;2024-01-15T05:44:43;16.92;;;10.80;;
44486;SDS011;30191;50.908;6.962;2024-01-15T05:47:09;24.60;;;12.32;;
44486;SDS011;30191;50.908;6.962;2024-01-15T05:49:35;19.23;;;10.80;;
44486;SDS011;30191;50.908;6.962;2024-01-15T05:52:01;20.17;;;11.05;;
44486;SDS011;30191;50.908;6.962;2024-01-15T05:54:26;17.88;;;10.35;;
44486;SDS011;30191;50.908;6.962;2024-01-15T05:56:52;17.60;;;10.10;;
44486;SDS011;30191;50.908;6.962;2024-01-15T05:59:18;17.77;;;9.73;;
44486;SDS011;30191;50.908;6.962;2024-01-15T06:01:43;16.02;;;9.77;;
44486;SDS011;30191;50.908;6.962;2024-01-15T06:04:09;15.15;;;9.45;;
44486;SDS011;30191;50.908;6.962;2024-01-15T06:06:35;18.25;;;9.98;;
44486;SDS011;30191;50.908;6.962;2024-01-15T06:09:00;15.57;;;9.63;;
44486;SDS011;30191;50.908;6.962;2024-01-15T06:11:30;15.85;;;10.00;;
44486;SDS011;30191;50.908;6.962;2024-01-15T06:13:57;15.40;;;9.57;;
44486;SDS011;30191;50.908;6.962;2024-01-15T06:16:23;16.20;;;9.90;;
44486;SDS011;30191;50.908;6.962;2024-01-15T06:18:49;18.17;;;10.77;;
44486;SDS011;30191;50.908;6.962;2024-01-15T06:21:15;17.52;;;10.80;;
44486;SDS011;30191;50.908;6.962;2024-01-15T06:23:41;14.95;;;11.07;;
44486;SDS011;30191;50.908;6.962;2024-01-15T06:26:07;19.27;;;12.00;;
44486;SDS011;30191;50.908;6.962;2024-01-15T06:28:32;20.77;;;11.50;;
44486;SDS011;30191;50.908;6.962;2024-01-15T06:30:58;18.85;;;11.85;;
44486;SDS011;30191;50.908;6.962;2024-01-15T06:33:24;17.75;;;11.93;;
44486;SDS011;30191;50.908;6.962;2024-01-15T06:35:50;20.48;;;11.43;;
44486;SDS011;30191;50.908;6.962;2024-01-15T06:38:15;17.85;;;11.52;;
44486;SDS011;30191;50.908;6.962;2024-01-15T06:40:41;22.38;;;12.00;;
44486;SDS011;30191;50.908;6.962;2024-01-15T06:43:10;18.77;;;11.45;;
44486;SDS011;30191;50.908;6.962;2024-01-15T06:45:36;18.73;;;11.65;;
44486;SDS011;30191;50.908;6.962;2024-01-15T06:48:02;16.77;;;11.52;;
44486;SDS011;30191;50.908;6.962;2024-01-15T06:50:28;21.17;;;12.48;;
44486;SDS011;30191;50.908;6.962;2024-01-15T06:52:54;21.20;;;11.90;;
44486;SDS011;30191;50.908;6.962;2024-01-15T06:55:19;19.23;;;12.20;;
44486;SDS011;30191;50.908;6.962;2024-01-15T06:57:45;19.80;;;12.00;;
44486;SDS011;30191;50.908;6.962;2024-01-15T07:00:10;22.63;;;12.63;;
44486;SDS011;30191;50.908;6.962;2024-01-15T07:02:36;18.85;;;12.27;;
44486;SDS011;30191;50.908;6.962;2024-01-15T07:05:02;19.88;;;12.27;;
44486;SDS011;30191;50.908;6.962;2024-01-15T07:07:30;21.77;;;12.55;;
44486;SDS011;30191;50.908;6.962;2024-01-15T07:09:56;17.75;;;12.20;;
44486;SDS011;30191;50.908;6.962;2024-01-15T07:12:21;23.05;;;12.95;;
44486;SDS011;30191;50.908;6.962;2024-01-15T07:14:48;18.20;;;11.95;;
44486;SDS011;30191;50.908;6.962;2024-01-15T07:17:13;20.20;;;11.85;;
44486;SDS011;30191;50.908;6.962;2024-01-15T07:19:39;22.52;;;12.25;;
44486;SDS011;30191;50.908;6.962;2024-01-15T07:22:05;22.15;;;11.90;;
44486;SDS011;30191;50.908;6.962;2024-01-15T07:24:30;19.88;;;11.63;;
44486;SDS011;30191;50.908;6.962;2024-01-15T07:26:56;22.13;;;11.75;;
44486;SDS011;30191;50.908;6.962;2024-01-15T07:29:21;20.63;;;11.45;;
44486;SDS011;30191;50.908;6.962;2024-01-15T07:31:50;20.35;;;12.30;;
44486;SDS011;30191;50.908;6.962;2024-01-15T07:34:17;19.67;;;11.32;;
44486;SDS011;30191;50.908;6.962;2024-01-15T07:36:45;21.20;;;12.32;;
44486;SDS011;30191;50.908;6.962;2024-01-15T07:39:11;20.02;;;12.02;;
44486;SDS011;30191;50.908;6.962;2024-01-15T07:41:37;22.75;;;12.85;;
44486;SDS011;30191;50.908;6.962;2024-01-15T07:44:03;22.75;;;12.38;;
44486;SDS011;30191;50.908;6.962;2024-01-15T07:46:29;19.42;;;12.52;;
44486;SDS011;30191;50.908;6.962;2024-01-15T07:48:55;20.38;;;11.88;;
44486;SDS011;30191;50.908;6.962;2024-01-15T07:51:22;22.65;;;12.82;;
44486;SDS011;30191;50.908;6.962;2024-01-15T07:53:52;20.45;;;13.15;;
44486;SDS011;30191;50.908;6.962;2024-01-15T07:56:18;20.85;;;12.70;;
44486;SDS011;30191;50.908;6.962;2024-01-15T07:58:44;23.10;;;13.85;;
44486;SDS011;30191;50.908;6.962;2024-01-15T08:01:10;20.00;;;13.38;;
44486;SDS011;30191;50.908;6.962;2024-01-15T08:03:36;21.00;;;14.02;;
44486;SDS011;30191;50.908;6.962;2024-01-15T08:06:01;24.10;;;14.20;;
44486;SDS011;30191;50.908;6.962;2024-01-15T08:08:27;25.35;;;14.45;;
44486;SDS011;30191;50.908;6.962;2024-01-15T08:10:53;24.83;;;14.18;;
44486;SDS011;30191;50.908;6.962;2024-01-15T08:13:18;23.13;;;14.10;;
44486;SDS011;30191;50.908;6.962;2024-01-15T08:15:45;21.05;;;13.73;;
44486;SDS011;30191;50.908;6.962;2024-01-15T08:18:11;24.58;;;13.70;;
44486;SDS011;30191;50.908;6.962;2024-01-15T08:20:37;24.30;;;13.48;;
44486;SDS011;30191;50.908;6.962;2024-01-15T08:23:03;21.17;;;13.65;;
44486;SDS011;30191;50.908;6.962;2024-01-15T08:25:29;24.67;;;13.65;;
44486;SDS011;30191;50.908;6.962;2024-01-15T08:27:56;24.27;;;13.98;;
44486;SDS011;30191;50.908;6.962;2024-01-15T08:30:22;24.80;;;13.95;;
44486;SDS011;30191;50.908;6.962;2024-01-15T08:32:52;29.10;;;13.80;;
44486;SDS011;30191;50.908;6.962;2024-01-15T08:35:21;23.10;;;13.05;;
44486;SDS011;30191;50.908;6.962;2024-01-15T08:37:50;23.05;;;13.15;;
44486;SDS011;30191;50.908;6.962;2024-01-15T08:40:17;24.13;;;11.85;;
44486;SDS011;30191;50.908;6.962;2024-01-15T08:42:43;20.75;;;11.70;;
44486;SDS011;30191;50.908;6.962;2024-01-15T08:45:08;19.83;;;13.15;;
44486;SDS011;30191;50.908;6.962;2024-01-15T08:47:34;22.80;;;14.00;;
44486;SDS011;30191;50.908;6.962;2024-01-15T08:50:00;21.70;;;13.45;;
44486;SDS011;30191;50.908;6.962;2024-01-15T08:52:27;19.75;;;13.43;;
44486;SDS011;30191;50.908;6.962;2024-01-15T08:54:52;24.25;;;13.27;;
44486;SDS011;30191;50.908;6.962;2024-01-15T08:57:18;22.25;;;13.43;;
44486;SDS011;30191;50.908;6.962;2024-01-15T08:59:43;20.73;;;12.55;;
44486;SDS011;30191;50.908;6.962;2024-01-15T09:02:10;23.15;;;12.50;;
44486;SDS011;30191;50.908;6.962;2024-01-15T09:04:35;21.08;;;12.38;;
44486;SDS011;30191;50.908;6.962;2024-01-15T09:07:01;21.42;;;12.63;;
44486;SDS011;30191;50.908;6.962;2024-01-15T09:09:27;18.73;;;12.07;;
44486;SDS011;30191;50.908;6.962;2024-01-15T09:11:52;19.67;;;11.65;;
44486;SDS011;30191;50.908;6.962;2024-01-15T09:14:18;17.95;;;10.45;;
44486;SDS011;30191;50.908;6.962;2024-01-15T09:16:46;24.40;;;11.18;;
44486;SDS011;30191;50.908;6.962;2024-01-15T09:19:11;18.58;;;10.30;;
44486;SDS011;30191;50.908;6.962;2024-01-15T09:21:38;17.33;;;9.32;;
44486;SDS011;30191;50.908;6.962;2024-01-15T09:24:03;11.88;;;8.38;;
44486;SDS011;30191;50.908;6.962;2024-01-15T09:26:29;13.77;;;8.02;;
44486;SDS011;30191;50.908;6.962;2024-01-15T09:28:55;14.45;;;8.30;;
44486;SDS011;30191;50.908;6.962;2024-01-15T09:31:22;13.93;;;7.85;;
44486;SDS011;30191;50.908;6.962;2024-01-15T09:33:48;12.50;;;7.85;;
44486;SDS011;30191;50.908;6.962;2024-01-15T09:36:17;15.73;;;8.02;;
44486;SDS011;30191;50.908;6.962;2024-01-15T09:38:43;11.20;;;7.97;;
44486;SDS011;30191;50.908;6.962;2024-01-15T09:41:08;14.98;;;7.78;;
44486;SDS011;30191;50.908;6.962;2024-01-15T09:43:34;13.65;;;7.95;;
44486;SDS011;30191;50.908;6.962;2024-01-15T09:46:02;10.50;;;7.53;;
44486;SDS011;30191;50.908;6.962;2024-01-15T09:48:28;11.90;;;7.65;;
44486;SDS011;30191;50.908;6.962;2024-01-15T09:50:54;10.13;;;7.00;;
44486;SDS011;30191;50.908;6.962;2024-01-15T09:53:23;8.60;;;6.20;;
44486;SDS011;30191;50.908;6.962;2024-01-15T09:55:50;8.30;;;6.20;;
44486;SDS011;30191;50.908;6.962;2024-01-15T09:58:17;11.13;;;6.85;;
44486;SDS011;30191;50.908;6.962;2024-01-15T10:00:44;9.07;;;5.15;;
44486;SDS011;30191;50.908;6.962;2024-01-15T10:03:12;8.30;;;5.90;;
44486;SDS011;30191;50.908;6.962;2024-01-15T10:05:38;10.13;;;5.63;;
44486;SDS011;30191;50.908;6.962;2024-01-15T10:08:04;6.70;;;6.00;;
44486;SDS011;30191;50.908;6.962;2024-01-15T10:10:30;8.50;;;5.57;;
44486;SDS011;30191;50.908;6.962;2024-01-15T10:12:56;8.02;;;4.95;;
44486;SDS011;30191;50.908;6.962;2024-01-15T10:15:25;8.38;;;4.93;;
44486;SDS011;30191;50.908;6.962;2024-01-15T10:17:51;5.88;;;4.63;;
44486;SDS011;30191;50.908;6.962;2024-01-15T10:20:17;7.63;;;4.60;;
44486;SDS011;30191;50.908;6.962;2024-01-15T10:22:43;5.75;;;4.38;;
44486;SDS011;30191;50.908;6.962;2024-01-15T10:25:13;5.18;;;4.28;;
44486;SDS011;30191;50.908;6.962;2024-01-15T10:27:40;6.38;;;4.32;;
44486;SDS011;30191;50.908;6.962;2024-01-15T10:30:09;5.68;;;4.20;;
44486;SDS011;30191;50.908;6.962;2024-01-15T10:32:35;5.93;;;3.90;;
44486;SDS011;30191;50.908;6.962;2024-01-15T10:35:01;6.65;;;3.67;;
44486;SDS011;30191;50.908;6.962;2024-01-15T10:37:27;8.05;;;3.70;;
44486;SDS011;30191;50.908;6.962;2024-01-15T10:39:53;9.45;;;4.18;;
44486;SDS011;30191;50.908;6.962;2024-01-15T10:42:18;4.82;;;3.90;;
44486;SDS011;30191;50.908;6.962;2024-01-15T10:44:44;5.03;;;4.53;;
44486;SDS011;30191;50.908;6.962;2024-01-15T10:47:13;5.57;;;4.47;;
44486;SDS011;30191;50.908;6.962;2024-01-15T10:49:39;7.30;;;4.50;;
44486;SDS011;30191;50.908;6.962;2024-01-15T10:52:06;6.75;;;4.43;;
44486;SDS011;30191;50.908;6.962;2024-01-15T10:54:32;4.65;;;3.90;;
44486;SDS011;30191;50.908;6.962;2024-01-15T10:57:00;4.35;;;3.38;;
44486;SDS011;30191;50.908;6.962;2024-01-15T10:59:27;4.15;;;3.10;;
44486;SDS011;30191;50.908;6.962;2024-01-15T11:01:52;3.58;;;3.05;;
44486;SDS011;30191;50.908;6.962;2024-01-15T11:04:19;5.05;;;3.47;;
44486;SDS011;30191;50.908;6.962;2024-01-15T11:06:52;3.47;;;3.15;;
44486;SDS011;30191;50.908;6.962;2024-01-15T11:09:18;6.22;;;3.70;;
44486;SDS011;30191;50.908;6.962;2024-01-15T11:11:45;9.68;;;3.33;;
44486;SDS011;30191;50.908;6.962;2024-01-15T11:17:16;4.82;;;2.92;;
44486;SDS011;30191;50.908;6.962;2024-01-15T11:22:10;4.38;;;3.97;;
44486;SDS011;30191;50.908;6.962;2024-01-15T11:24:52;4.25;;;3.30;;
44486;SDS011;30191;50.908;6.962;2024-01-15T11:27:17;3.42;;;3.13;;
44486;SDS011;30191;50.908;6.962;2024-01-15T11:30:12;4.55;;;3.40;;
44486;SDS011;30191;50.908;6.962;2024-01-15T11:32:39;3.75;;;3.45;;
44486;SDS011;30191;50.908;6.962;2024-01-15T11:35:08;4.10;;;3.72;;
44486;SDS011;30191;50.908;6.962;2024-01-15T11:40:22;4.72;;;4.25;;
44486;SDS011;30191;50.908;6.962;2024-01-15T11:42:48;5.28;;;4.78;;
44486;SDS011;30191;50.908;6.962;2024-01-15T11:45:18;8.02;;;4.85;;
44486;SDS011;30191;50.908;6.962;2024-01-15T11:50:25;6.30;;;5.70;;
44486;SDS011;30191;50.908;6.962;2024-01-15T11:52:57;5.95;;;5.45;;
44486;SDS011;30191;50.908;6.962;2024-01-15T11:55:30;6.15;;;5.65;;
44486;SDS011;30191;50.908;6.962;2024-01-15T11:58:01;7.90;;;5.60;;
44486;SDS011;30191;50.908;6.962;2024-01-15T12:00:27;7.03;;;5.78;;
44486;SDS011;30191;50.908;6.962;2024-01-15T12:02:53;6.15;;;5.50;;
44486;SDS011;30191;50.908;6.962;2024-01-15T12:05:22;7.70;;;6.05;;
44486;SDS011;30191;50.908;6.962;2024-01-15T12:07:48;6.85;;;5.50;;
44486;SDS011;30191;50.908;6.962;2024-01-15T12:10:16;7.45;;;6.25;;
44486;SDS011;30191;50.908;6.962;2024-01-15T12:15:25;6.22;;;5.63;;
44486;SDS011;30191;50.908;6.962;2024-01-15T12:17:55;7.45;;;6.40;;
44486;SDS011;30191;50.908;6.962;2024-01-15T12:20:26;8.77;;;6.07;;
44486;SDS011;30191;50.908;6.962;2024-01-15T12:22:53;9.88;;;6.05;;
44486;SDS011;30191;50.908;6.962;2024-01-15T12:25:20;10.50;;;6.70;;
44486;SDS011;30191;50.908;6.962;2024-01-15T12:27:46;10.93;;;5.70;;
44486;SDS011;30191;50.908;6.962;2024-01-15T12:30:15;10.88;;;5.70;;
44486;SDS011;30191;50.908;6.962;2024-01-15T12:32:41;8.43;;;5.30;;
44486;SDS011;30191;50.908;6.962;2024-01-15T12:35:07;9.35;;;5.30;;
44486;SDS011;30191;50.908;6.962;2024-01-15T12:37:35;10.80;;;5.32;;
44486;SDS011;30191;50.908;6.962;2024-01-15T12:40:02;10.52;;;5.25;;
44486;SDS011;30191;50.908;6.962;2024-01-15T12:42:37;12.00;;;5.28;;
44486;SDS011;30191;50.908;6.962;2024-01-15T12:45:06;11.75;;;4.55;;
44486;SDS011;30191;50.908;6.962;2024-01-15T12:47:33;12.05;;;4.57;;
44486;SDS011;30191;50.908;6.962;2024-01-15T12:49:59;11.35;;;4.38;;
44486;SDS011;30191;50.908;6.962;2024-01-15T12:52:27;12.48;;;3.92;;
44486;SDS011;30191;50.908;6.962;2024-01-15T12:54:54;12.43;;;4.38;;
44486;SDS011;30191;50.908;6.962;2024-01-15T12:57:20;11.00;;;3.80;;
44486;SDS011;30191;50.908;6.962;2024-01-15T12:59:46;9.95;;;4.30;;
44486;SDS011;30191;50.908;6.962;2024-01-15T13:02:12;8.68;;;3.78;;
44486;SDS011;30191;50.908;6.962;2024-01-15T13:04:38;10.57;;;4.00;;
44486;SDS011;30191;50.908;6.962;2024-01-15T13:07:05;10.32;;;4.22;;
44486;SDS011;30191;50.908;6.962;2024-01-15T13:09:32;13.40;;;4.13;;
44486;SDS011;30191;50.908;6.962;2024-01-15T13:11:58;6.15;;;3.75;;
44486;SDS011;30191;50.908;6.962;2024-01-15T13:14:24;10.55;;;4.28;;
44486;SDS011;30191;50.908;6.962;2024-01-15T13:16:50;8.80;;;3.28;;
44486;SDS011;30191;50.908;6.962;2024-01-15T13:19:16;10.45;;;3.38;;
44486;SDS011;30191;50.908;6.962;2024-01-15T13:21:42;13.32;;;3.50;;
44486;SDS011;30191;50.908;6.962;2024-01-15T13:24:08;11.18;;;3.38;;
44486;SDS011;30191;50.908;6.962;2024-01-15T13:26:34;9.85;;;3.42;;
44486;SDS011;30191;50.908;6.962;2024-01-15T13:29:01;9.65;;;3.10;;
44486;SDS011;30191;50.908;6.962;2024-01-15T13:31:28;9.05;;;2.97;;
44486;SDS011;30191;50.908;6.962;2024-01-15T13:33:58;8.10;;;3.00;;
44486;SDS011;30191;50.908;6.962;2024-01-15T13:36:24;11.00;;;3.20;;
44486;SDS011;30191;50.908;6.962;2024-01-15T13:38:51;6.55;;;2.70;;
44486;SDS011;30191;50.908;6.962;2024-01-15T13:41:17;13.00;;;3.25;;
44486;SDS011;30191;50.908;6.962;2024-01-15T13:43:52;6.38;;;2.60;;
44486;SDS011;30191;50.908;6.962;2024-01-15T13:46:19;8.40;;;3.17;;
44486;SDS011;30191;50.908;6.962;2024-01-15T13:48:46;12.23;;;2.72;;
44486;SDS011;30191;50.908;6.962;2024-01-15T13:51:12;2.97;;;2.17;;
44486;SDS011;30191;50.908;6.962;2024-01-15T13:53:38;6.57;;;2.33;;
44486;SDS011;30191;50.908;6.962;2024-01-15T13:56:05;5.03;;;2.00;;
44486;SDS011;30191;50.908;6.962;2024-01-15T13:58:31;5.70;;;1.70;;
44486;SDS011;30191;50.908;6.962;2024-01-15T14:00:57;2.05;;;1.35;;
44486;SDS011;30191;50.908;6.962;2024-01-15T14:03:23;2.80;;;1.23;;
44486;SDS011;30191;50.908;6.962;2024-01-15T14:05:50;2.63;;;1.50;;
44486;SDS011;30191;50.908;6.962;2024-01-15T14:08:16;4.03;;;1.30;;
44486;SDS011;30191;50.908;6.962;2024-01-15T14:10:42;1.90;;;1.17;;
44486;SDS011;30191;50.908;6.962;2024-01-15T14:13:07;2.83;;;1.20;;
44486;SDS011;30191;50.908;6.962;2024-01-15T14:15:33;3.00;;;1.15;;
44486;SDS011;30191;50.908;6.962;2024-01-15T14:17:59;3.08;;;1.33;;
44486;SDS011;30191;50.908;6.962;2024-01-15T14:20:26;3.92;;;1.40;;
44486;SDS011;30191;50.908;6.962;2024-01-15T14:22:52;3.60;;;1.30;;
44486;SDS011;30191;50.908;6.962;2024-01-15T14:25:19;1.75;;;1.13;;
44486;SDS011;30191;50.908;6.962;2024-01-15T14:27:45;3.90;;;1.30;;
44486;SDS011;30191;50.908;6.962;2024-01-15T14:30:11;2.28;;;1.30;;
44486;SDS011;30191;50.908;6.962;2024-01-15T14:32:38;2.92;;;1.40;;
44486;SDS011;30191;50.908;6.962;2024-01-15T14:35:04;1.70;;;1.20;;
44486;SDS011;30191;50.908;6.962;2024-01-15T14:37:30;3.67;;;1.38;;